Time;durP1;ratioP1;P1;durP2;ratioP2;P2;SDS_P1;SDS_P2;PMS_P1;PMS_P2;Temp;Humidity;BMP_temperature;BMP_pressure;BME280_temperature;BME280_humidity;BME280_pressure;Samples;Min_cycle;Max_cycle;Signal;HPM_P1;HPM_P2
2022/10/04 00:00:42;;;;;;;7.03;6.03;;;6.30;99.90;;;;;;5131501;28;20398;-82
2022/10/04 00:03:07;;;;;;;9.53;6.00;;;6.20;99.90;;;;;;5135873;28;20175;-80
2022/10/04 00:05:33;;;;;;;9.23;5.97;;;6.20;99.90;;;;;;5136895;28;20415;-81
2022/10/04 00:08:11;;;;;;;7.43;5.67;;;6.20;99.90;;;;;;5134645;28;20207;-83
2022/10/04 00:10:37;;;;;;;6.67;5.70;;;6.20;99.90;;;;;;5126975;28;20210;-84
2022/10/04 00:13:06;;;;;;;8.00;5.70;;;6.10;99.90;;;;;;5122559;28;20804;-84
2022/10/04 00:15:36;;;;;;;7.57;5.63;;;6.10;99.90;;;;;;5122708;28;20230;-84
2022/10/04 00:18:02;;;;;;;7.40;5.10;;;;;;;;;;5119163;28;20461;-85
2022/10/04 00:20:47;;;;;;;10.60;6.23;;;6.10;99.90;;;;;;5119133;28;20423;-83
2022/10/04 00:23:25;;;;;;;6.70;5.33;;;6.10;99.90;;;;;;5121009;28;20250;-83
2022/10/04 00:25:53;;;;;;;8.13;6.00;;;6.00;99.90;;;;;;5120462;28;20459;-83
2022/10/04 00:28:24;;;;;;;9.90;6.07;;;6.00;99.90;;;;;;5119362;28;20412;-83
2022/10/04 00:31:12;;;;;;;8.67;5.67;;;6.00;99.90;;;;;;5120295;28;20413;-84
2022/10/04 00:33:44;;;;;;;7.90;5.07;;;6.00;99.90;;;;;;5119092;28;20420;-83
2022/10/04 00:36:24;;;;;;;7.60;5.37;;;6.00;99.90;;;;;;5121200;28;20187;-82
2022/10/04 00:39:09;;;;;;;9.67;5.07;;;5.90;99.90;;;;;;5120608;28;20518;-83
2022/10/04 00:41:51;;;;;;;7.23;4.83;;;5.90;99.90;;;;;;5119813;28;21349;-84
2022/10/04 00:44:25;;;;;;;9.20;5.33;;;5.90;99.90;;;;;;5120071;28;20409;-83
2022/10/04 00:46:52;;;;;;;5.90;4.97;;;5.90;99.90;;;;;;5118414;28;20770;-83
2022/10/04 00:49:22;;;;;;;7.20;5.60;;;5.80;99.90;;;;;;5118699;28;20559;-83
2022/10/04 00:51:57;;;;;;;5.53;4.80;;;5.80;99.90;;;;;;5119766;28;20413;-83
2022/10/04 00:54:37;;;;;;;6.93;4.77;;;5.80;99.90;;;;;;5120280;28;20614;-83
2022/10/04 00:57:06;;;;;;;9.63;5.17;;;5.70;99.90;;;;;;5119198;28;20179;-84
2022/10/04 05:46:50;;;;;;;6.00;4.50;;;4.30;99.90;;;;;;5137944;27;20294;-84
2022/10/04 05:49:18;;;;;;;6.37;4.73;;;4.30;99.90;;;;;;5134525;28;20462;-83
2022/10/04 05:51:59;;;;;;;5.97;4.97;;;4.30;99.90;;;;;;5136401;28;20753;-84
2022/10/04 05:54:27;;;;;;;7.30;5.43;;;4.30;99.90;;;;;;5137366;27;20197;-83
2022/10/04 05:57:24;;;;;;;6.40;5.50;;;4.30;99.90;;;;;;5135804;28;20199;-84
2022/10/04 06:00:11;;;;;;;9.27;5.87;;;4.30;99.90;;;;;;5135535;28;20178;-84
2022/10/04 06:07:33;;;;;;;7.27;5.20;;;4.40;99.90;;;;;;5137452;27;20272;-84
2022/10/04 06:10:27;;;;;;;7.50;5.63;;;4.40;99.90;;;;;;5119546;28;20168;-84
2022/10/04 06:13:03;;;;;;;10.00;6.10;;;4.50;99.90;;;;;;5121163;28;20174;-83
2022/10/04 06:15:43;;;;;;;14.17;6.23;;;4.60;99.90;;;;;;5121430;28;20687;-84
2022/10/04 06:18:27;;;;;;;9.47;7.63;;;4.70;99.90;;;;;;5134926;27;20155;-84
2022/10/04 06:21:14;;;;;;;9.40;6.70;;;4.80;99.90;;;;;;5135053;28;20633;-82
2022/10/04 06:23:48;;;;;;;13.67;8.43;;;4.90;99.90;;;;;;5136251;28;20202;-84
2022/10/04 06:26:20;;;;;;;17.60;9.83;;;5.00;99.90;;;;;;5138062;27;20226;-83
2022/10/04 06:28:55;;;;;;;12.73;7.03;;;5.10;99.90;;;;;;5139228;27;20176;-81
2022/10/04 06:33:33;;;;;;;26.60;14.10;;;5.30;99.90;;;;;;5137971;27;20616;-83
2022/10/04 06:36:26;;;;;;;32.67;17.10;;;5.40;99.90;;;;;;5126177;28;20196;-83
2022/10/04 06:39:26;;;;;;;10.33;7.10;;;5.50;99.90;;;;;;5137550;27;20167;-83
2022/10/04 06:41:55;;;;;;;7.20;5.47;;;5.60;99.90;;;;;;5139042;28;20562;-83
2022/10/04 06:44:35;;;;;;;6.63;5.27;;;5.70;99.90;;;;;;5139866;27;20255;-82
2022/10/04 06:47:04;;;;;;;27.53;16.17;;;5.90;99.90;;;;;;5139053;28;20710;-83
2022/10/04 06:49:37;;;;;;;12.60;7.53;;;5.90;99.90;;;;;;5138033;27;20173;-83
2022/10/04 06:52:22;;;;;;;13.60;9.73;;;6.00;99.90;;;;;;5137329;28;20197;-83
2022/10/04 06:55:11;;;;;;;8.03;5.47;;;6.10;99.90;;;;;;5146185;28;20149;-83
2022/10/04 06:58:08;;;;;;;6.23;5.63;;;6.10;99.90;;;;;;5154376;27;20192;-83
2022/10/04 07:01:01;;;;;;;8.73;4.80;;;6.10;99.90;;;;;;5152367;27;20164;-81
2022/10/04 07:03:46;;;;;;;7.27;3.73;;;6.20;99.90;;;;;;5141842;28;20271;-83
2022/10/04 07:06:12;;;;;;;3.17;2.87;;;6.30;99.90;;;;;;5136753;28;20692;-84
2022/10/04 07:08:46;;;;;;;3.40;3.10;;;6.30;99.90;;;;;;5135643;28;20202;-84
2022/10/04 07:11:24;;;;;;;7.23;3.70;;;6.30;99.90;;;;;;5137198;27;20185;-83
2022/10/04 07:14:01;;;;;;;5.80;3.33;;;6.40;99.90;;;;;;5136730;27;20204;-83
2022/10/04 07:17:04;;;;;;;8.37;3.90;;;6.40;99.90;;;;;;5137785;27;20193;-83
2022/10/04 07:19:50;;;;;;;4.93;3.10;;;6.50;99.90;;;;;;5115878;28;20210;-83
2022/10/04 07:22:40;;;;;;;5.47;3.30;;;6.70;99.90;;;;;;5137061;27;20214;-82
2022/10/04 07:25:30;;;;;;;6.03;3.03;;;6.80;99.90;;;;;;5134998;28;20195;-83
2022/10/04 07:30:55;;;;;;;7.03;4.03;;;7.00;99.90;;;;;;5135802;28;20200;-83
2022/10/04 07:33:23;;;;;;;3.30;2.87;;;7.10;99.90;;;;;;5135186;28;20171;-84
2022/10/04 07:36:06;;;;;;;3.43;3.00;;;7.20;99.90;;;;;;5134855;28;20229;-82
2022/10/04 07:38:35;;;;;;;4.53;3.10;;;7.30;99.90;;;;;;5135468;27;20166;-82
2022/10/04 07:41:11;;;;;;;4.00;3.00;;;7.40;99.90;;;;;;5134421;27;20181;-82
2022/10/04 07:43:50;;;;;;;2.87;2.57;;;7.50;99.90;;;;;;5127206;27;20295;-84
2022/10/04 07:46:51;;;;;;;3.67;3.07;;;7.50;99.90;;;;;;5120257;28;20198;-83
2022/10/04 07:49:20;;;;;;;3.20;2.90;;;7.60;99.90;;;;;;5104626;28;20181;-82
2022/10/04 07:52:04;;;;;;;3.20;2.70;;;7.60;99.90;;;;;;5118528;28;20295;-82
2022/10/04 07:54:56;;;;;;;4.90;3.20;;;7.70;99.90;;;;;;5117850;28;20167;-82
2022/10/04 07:57:47;;;;;;;3.57;2.97;;;7.90;99.90;;;;;;5119189;28;20163;-83
2022/10/04 08:00:20;;;;;;;2.77;2.27;;;8.10;99.90;;;;;;5121815;28;20160;-83
2022/10/04 08:03:23;;;;;;;5.50;3.50;;;8.30;99.90;;;;;;5124827;28;20254;-83
2022/10/04 08:06:27;;;;;;;4.23;2.93;;;8.40;99.90;;;;;;5120361;28;20194;-84
2022/10/04 08:09:20;;;;;;;3.33;2.67;;;8.50;99.90;;;;;;5117199;28;20190;-83
2022/10/04 08:12:04;;;;;;;2.67;2.40;;;8.60;99.90;;;;;;5118151;28;20242;-84
2022/10/04 08:14:32;;;;;;;2.60;2.40;;;8.70;99.90;;;;;;5119274;28;20679;-83
2022/10/04 08:17:13;;;;;;;3.20;2.47;;;8.90;99.90;;;;;;5120214;28;20191;-83
2022/10/04 08:20:16;;;;;;;2.87;2.50;;;9.10;99.90;;;;;;5121764;28;20559;-82
2022/10/04 08:23:26;;;;;;;2.43;2.23;;;9.30;99.90;;;;;;5117936;28;20179;-83
2022/10/04 08:26:18;;;;;;;1.70;1.60;;;9.60;99.90;;;;;;5093508;28;20339;-83
2022/10/04 08:31:58;;;;;;;2.80;2.00;;;10.20;99.90;;;;;;5118583;28;20294;-83
2022/10/04 08:34:50;;;;;;;3.23;1.97;;;10.50;99.90;;;;;;5118200;28;20207;-83
2022/10/04 08:37:48;;;;;;;3.23;1.77;;;10.80;99.90;;;;;;5116703;28;20179;-83
2022/10/04 08:40:33;;;;;;;3.80;1.50;;;11.10;99.90;;;;;;5117435;28;20227;-83
2022/10/04 08:43:30;;;;;;;2.30;1.87;;;11.20;99.90;;;;;;5118321;28;20700;-84
2022/10/04 08:46:12;;;;;;;2.77;1.47;;;11.30;99.90;;;;;;5116521;28;20199;-82
2022/10/04 08:48:50;;;;;;;5.13;1.50;;;11.40;99.90;;;;;;5116833;28;20250;-83
2022/10/04 08:51:43;;;;;;;3.83;1.90;;;11.70;99.90;;;;;;5118555;28;20179;-83
2022/10/04 08:54:46;;;;;;;1.57;1.20;;;11.80;99.90;;;;;;5116588;28;20171;-83
2022/10/04 08:57:47;;;;;;;1.60;1.30;;;12.00;99.90;;;;;;5116798;28;20203;-83
2022/10/04 09:00:14;;;;;;;1.57;1.47;;;11.90;99.90;;;;;;5118034;28;20199;-83
2022/10/04 09:03:25;;;;;;;5.03;2.07;;;11.90;99.90;;;;;;5120319;28;20590;-83
2022/10/04 09:05:54;;;;;;;6.00;1.70;;;12.00;99.90;;;;;;5122594;28;20187;-83
2022/10/04 09:08:45;;;;;;;3.57;1.43;;;12.20;99.90;;;;;;5119651;28;20175;-85
2022/10/04 09:11:26;;;;;;;1.83;1.33;;;12.40;99.90;;;;;;5101937;28;20290;-83
2022/10/04 09:14:06;;;;;;;1.57;1.30;;;12.60;99.90;;;;;;5118202;28;20160;-82
2022/10/04 09:16:44;;;;;;;1.80;1.27;;;12.60;99.90;;;;;;5116610;28;20237;-83
2022/10/04 09:19:26;;;;;;;3.20;1.30;;;12.70;99.90;;;;;;5118173;28;20177;-84
2022/10/04 09:21:55;;;;;;;1.80;1.70;;;12.80;99.90;;;;;;5117112;28;20693;-84
2022/10/04 09:24:45;;;;;;;3.53;1.60;;;13.00;99.90;;;;;;5122371;28;20171;-81
2022/10/04 09:27:35;;;;;;;3.13;1.67;;;13.10;99.90;;;;;;5120208;28;20200;-82
2022/10/04 09:30:21;;;;;;;2.03;1.60;;;13.30;99.90;;;;;;5120870;28;20156;-85
2022/10/04 09:33:19;;;;;;;4.17;1.83;;;13.50;99.90;;;;;;5128648;28;20211;-84
2022/10/04 09:36:23;;;;;;;4.70;1.60;;;13.70;99.90;;;;;;5119531;28;20215;-81
2022/10/04 09:38:55;;;;;;;1.90;1.57;;;13.70;99.90;;;;;;5118068;28;20240;-82
2022/10/04 09:41:58;;;;;;;1.80;1.63;;;13.90;99.90;;;;;;5117159;28;20191;-83
2022/10/04 09:44:27;;;;;;;3.40;1.70;;;14.10;99.90;;;;;;5120469;28;20182;-82
2022/10/04 09:47:02;;;;;;;5.80;1.90;;;14.20;99.90;;;;;;5121422;28;20190;-83
2022/10/04 09:49:36;;;;;;;2.50;1.67;;;14.20;99.90;;;;;;5119247;28;20636;-83
2022/10/04 09:52:17;;;;;;;5.90;1.60;;;14.20;99.90;;;;;;5123286;28;20210;-83
2022/10/04 09:55:04;;;;;;;4.30;1.57;;;14.20;99.90;;;;;;5126927;28;20215;-82
2022/10/04 09:58:08;;;;;;;4.77;1.80;;;14.00;99.90;;;;;;5125946;28;20194;-83
2022/10/04 10:00:58;;;;;;;5.10;1.80;;;13.90;99.90;;;;;;5081066;28;20208;-83
2022/10/04 10:03:33;;;;;;;2.57;1.30;;;13.90;99.90;;;;;;5114782;28;20176;-84
2022/10/04 10:06:27;;;;;;;2.30;1.50;;;14.00;99.90;;;;;;5118373;28;20187;-84
2022/10/04 10:08:59;;;;;;;1.63;1.50;;;14.30;99.90;;;;;;5116136;28;20651;-82
2022/10/04 10:15:13;;;;;;;2.07;1.63;;;15.00;99.90;;;;;;5118379;28;20171;-82
2022/10/04 10:17:55;;;;;;;3.27;2.03;;;15.00;99.90;;;;;;5115764;28;20196;-84
2022/10/04 10:20:32;;;;;;;3.00;1.80;;;15.10;99.90;;;;;;5117874;28;20160;-82
2022/10/04 10:23:25;;;;;;;2.77;1.60;;;15.20;99.90;;;;;;5116112;28;20579;-82
2022/10/04 10:26:23;;;;;;;1.93;1.73;;;15.40;99.90;;;;;;5116380;28;20219;-82
2022/10/04 10:29:24;;;;;;;1.40;1.30;;;15.50;99.90;;;;;;5115667;28;20165;-82
2022/10/04 10:32:03;;;;;;;2.30;1.57;;;15.40;99.90;;;;;;5063397;28;20223;-85
2022/10/04 10:35:13;;;;;;;2.43;1.63;;;15.40;99.90;;;;;;5115005;28;20616;-84
2022/10/04 10:38:01;;;;;;;2.53;1.83;;;15.40;99.90;;;;;;5115075;28;20203;-82
2022/10/04 10:41:00;;;;;;;3.20;2.00;;;15.40;99.90;;;;;;5114909;28;20586;-85
2022/10/04 10:43:41;;;;;;;2.80;1.80;;;15.30;99.90;;;;;;5071036;28;20239;-82
2022/10/04 10:46:41;;;;;;;3.23;1.80;;;15.30;99.90;;;;;;5115068;28;20202;-82
2022/10/04 10:49:29;;;;;;;4.27;1.63;;;15.50;99.90;;;;;;5116131;28;20160;-85
2022/10/04 10:52:29;;;;;;;1.63;1.50;;;16.10;99.90;;;;;;5116492;28;20236;-83
2022/10/04 10:55:18;;;;;;;3.33;1.80;;;17.00;99.90;;;;;;5114749;28;20171;-85
2022/10/04 10:57:56;;;;;;;2.70;1.93;;;17.90;99.90;;;;;;5115334;28;20528;-83
2022/10/04 11:00:24;;;;;;;1.73;1.63;;;18.40;99.90;;;;;;5116974;28;20168;-84
2022/10/04 11:03:04;;;;;;;2.43;1.70;;;18.80;99.90;;;;;;5115713;28;20209;-82
2022/10/04 11:05:51;;;;;;;2.93;1.63;;;19.30;99.90;;;;;;5114656;28;20199;-84
2022/10/04 11:08:55;;;;;;;1.73;1.63;;;19.60;99.90;;;;;;5116705;28;20191;-85
2022/10/04 11:11:42;;;;;;;1.60;1.50;;;19.90;99.90;;;;;;5116434;28;20716;-84
2022/10/04 11:14:11;;;;;;;1.63;1.53;;;19.90;99.90;;;;;;5116876;28;20637;-82
2022/10/04 11:17:05;;;;;;;2.80;1.40;;;20.00;99.90;;;;;;5116901;28;20195;-83
2022/10/04 11:20:04;;;;;;;1.70;1.50;;;20.00;99.90;;;;;;5118227;28;20172;-82
2022/10/04 11:22:48;;;;;;;3.23;1.50;;;20.20;99.90;;;;;;5119911;28;20167;-82
2022/10/04 11:25:38;;;;;;;4.07;1.70;;;20.20;99.90;;;;;;5120648;28;20190;-84
2022/10/04 11:28:34;;;;;;;1.97;1.80;;;20.50;99.90;;;;;;5109386;28;20199;-83
2022/10/04 11:31:16;;;;;;;1.90;1.53;;;20.90;99.90;;;;;;5119243;28;20269;-84
2022/10/04 11:33:59;;;;;;;1.77;1.50;;;21.20;99.90;;;;;;5120604;28;20161;-85
2022/10/04 11:36:46;;;;;;;1.63;1.40;;;21.40;99.90;;;;;;5120118;28;20200;-83
2022/10/04 11:39:29;;;;;;;3.90;1.40;;;21.50;99.90;;;;;;5119126;28;20519;-84
2022/10/04 11:42:16;;;;;;;1.63;1.47;;;21.30;99.90;;;;;;5118936;28;20175;-83
2022/10/04 11:45:01;;;;;;;1.93;1.50;;;21.10;99.90;;;;;;5109966;28;20187;-84
2022/10/04 11:47:45;;;;;;;1.60;1.50;;;21.10;99.90;;;;;;5118434;28;20181;-85
2022/10/04 11:51:04;;;;;;;1.73;1.60;;;21.10;99.90;;;;;;5118679;28;20164;-86
2022/10/04 11:53:51;;;;;;;2.00;1.70;;;21.00;99.90;;;;;;5040427;28;20198;-85
2022/10/04 11:56:34;;;;;;;3.83;1.57;;;21.00;99.90;;;;;;5040454;28;20273;-85
2022/10/04 11:59:21;;;;;;;1.80;1.63;;;21.00;99.90;;;;;;5096492;28;20635;-83
2022/10/04 12:02:31;;;;;;;3.87;1.93;;;21.10;99.90;;;;;;5119018;28;20171;-83
2022/10/04 12:05:32;;;;;;;2.80;1.67;;;21.10;99.90;;;;;;5118722;28;20196;-84
2022/10/04 12:08:09;;;;;;;2.33;2.00;;;21.20;99.90;;;;;;5118991;28;20173;-86
2022/10/04 12:10:47;;;;;;;2.63;2.20;;;21.40;99.90;;;;;;5120787;28;20152;-85
2022/10/04 12:13:31;;;;;;;3.20;1.93;;;21.60;99.90;;;;;;5119684;28;20669;-84
2022/10/04 12:16:11;;;;;;;2.97;1.80;;;21.90;99.90;;;;;;5119347;28;20234;-84
2022/10/04 12:19:06;;;;;;;2.17;1.50;;;22.30;99.90;;;;;;5120211;28;20177;-84
2022/10/04 12:21:41;;;;;;;2.70;2.00;;;22.40;99.90;;;;;;5122096;28;20152;-86
2022/10/04 12:24:26;;;;;;;3.37;1.60;;;22.60;99.90;;;;;;5134753;28;20183;-85
2022/10/04 12:27:13;;;;;;;2.00;1.67;;;22.50;99.90;;;;;;5128045;28;20199;-79
2022/10/04 12:30:01;;;;;;;3.30;1.70;;;22.60;99.90;;;;;;5132057;28;20225;-81
2022/10/04 12:32:56;;;;;;;2.37;1.80;;;22.80;99.90;;;;;;5126080;28;20218;-85
2022/10/04 12:36:00;;;;;;;2.67;1.80;;;22.80;99.90;;;;;;5091442;28;20205;-86
2022/10/04 12:38:38;;;;;;;2.27;1.60;;;22.90;99.90;;;;;;5119400;28;20175;-84
2022/10/04 12:41:22;;;;;;;1.83;1.50;;;23.10;99.90;;;;;;5117359;28;20191;-83
2022/10/04 12:44:11;;;;;;;1.80;1.60;;;23.00;99.90;;;;;;5120567;28;20182;-85
2022/10/04 12:47:04;;;;;;;1.47;1.37;;;23.20;99.90;;;;;;5078136;28;20271;-85
2022/10/04 12:49:45;;;;;;;1.40;1.30;;;23.50;99.90;;;;;;5119773;28;20159;-83
2022/10/04 12:52:17;;;;;;;2.37;1.40;;;23.80;99.90;;;;;;5118642;28;20191;-83
2022/10/04 12:54:46;;;;;;;2.60;1.47;;;23.80;99.90;;;;;;5116706;28;20527;-84
2022/10/04 12:57:36;;;;;;;2.33;1.63;;;23.80;99.90;;;;;;5116576;28;20179;-85
2022/10/04 13:00:23;;;;;;;1.73;1.60;;;23.50;99.90;;;;;;5116762;28;20168;-84
2022/10/04 13:03:23;;;;;;;2.87;1.40;;;23.00;99.90;;;;;;5116337;28;20266;-84
2022/10/04 13:06:18;;;;;;;9.17;1.47;;;22.80;99.90;;;;;;5117940;28;20248;-83
2022/10/04 13:09:06;;;;;;;2.20;1.17;;;22.80;99.90;;;;;;5117596;28;20183;-83
2022/10/04 13:11:56;;;;;;;2.47;1.30;;;22.90;99.90;;;;;;5116340;28;20535;-85
2022/10/04 13:14:35;;;;;;;1.50;1.40;;;22.90;99.90;;;;;;5117606;28;20689;-84
2022/10/04 13:17:31;;;;;;;1.43;1.20;;;23.00;99.90;;;;;;5115691;28;20206;-84
2022/10/04 13:20:17;;;;;;;2.00;1.80;;;23.20;99.90;;;;;;5117407;28;20538;-85
2022/10/04 13:22:55;;;;;;;2.07;1.40;;;23.20;99.20;;;;;;5116223;28;20560;-84
2022/10/04 13:25:30;;;;;;;2.17;1.40;;;23.20;99.90;;;;;;5117372;28;20198;-84
2022/10/04 13:28:20;;;;;;;8.83;1.40;;;23.20;99.90;;;;;;5116196;28;20174;-85
2022/10/04 13:31:04;;;;;;;3.27;1.30;;;23.10;99.90;;;;;;5116249;28;20189;-84
2022/10/04 13:33:36;;;;;;;1.30;1.20;;;23.10;99.90;;;;;;5115769;28;20167;-85
2022/10/04 13:36:12;;;;;;;1.43;1.10;;;22.90;99.90;;;;;;5117180;28;20738;-84
2022/10/04 13:38:38;;;;;;;3.00;1.10;;;;;;;;;;5114444;28;20182;-83
2022/10/04 13:41:07;;;;;;;2.20;1.40;;;23.00;99.90;;;;;;5115377;28;20645;-83
2022/10/04 13:43:52;;;;;;;1.80;1.27;;;23.20;99.90;;;;;;5115289;28;20177;-84
2022/10/04 13:46:23;;;;;;;1.73;1.63;;;23.10;99.90;;;;;;5117420;28;20661;-85
2022/10/04 13:49:13;;;;;;;2.13;1.20;;;23.00;99.90;;;;;;5117123;28;20164;-84
2022/10/04 13:51:42;;;;;;;1.30;1.10;;;22.20;99.90;;;;;;5118098;28;20184;-84
2022/10/04 13:57:29;;;;;;;2.13;1.30;;;20.80;99.90;;;;;;5117434;28;20165;-85
2022/10/04 14:00:13;;;;;;;3.73;1.27;;;20.30;99.90;;;;;;5115678;28;20183;-83
2022/10/04 14:02:52;;;;;;;6.67;2.17;;;19.90;99.90;;;;;;5115458;28;20169;-85
2022/10/04 14:05:42;;;;;;;2.03;1.83;;;19.40;99.90;;;;;;5117223;28;20209;-84
2022/10/04 14:08:27;;;;;;;2.93;1.10;;;19.50;99.90;;;;;;5116771;28;20182;-84
2022/10/04 14:11:10;;;;;;;1.10;1.00;;;20.20;99.90;;;;;;5116789;28;20641;-84
2022/10/04 14:14:25;;;;;;;1.20;1.10;;;20.60;99.90;;;;;;5115566;28;20272;-86
2022/10/04 14:17:22;;;;;;;1.73;1.10;;;20.50;99.90;;;;;;5116444;28;20264;-84
2022/10/04 14:20:24;;;;;;;1.37;1.10;;;19.80;99.90;;;;;;5116479;28;20152;-84
2022/10/04 14:23:11;;;;;;;1.50;1.20;;;19.00;99.90;;;;;;5114883;28;20186;-85
2022/10/04 14:26:06;;;;;;;1.20;1.10;;;18.50;99.90;;;;;;5114980;28;20217;-82
2022/10/04 14:29:16;;;;;;;2.97;1.20;;;18.10;99.90;;;;;;5114595;28;20164;-85
2022/10/04 14:32:13;;;;;;;2.10;1.13;;;17.80;99.90;;;;;;5110495;28;20219;-84
2022/10/04 14:34:54;;;;;;;1.87;1.43;;;17.50;99.90;;;;;;5116239;28;20633;-83
2022/10/04 14:37:48;;;;;;;1.40;1.30;;;17.30;99.90;;;;;;5115010;28;20191;-83
2022/10/04 14:40:41;;;;;;;4.20;1.30;;;17.10;99.90;;;;;;5115144;28;20170;-84
2022/10/04 14:43:26;;;;;;;1.77;1.60;;;16.90;99.90;;;;;;5115326;28;20584;-84
2022/10/04 14:46:10;;;;;;;4.70;1.20;;;16.70;99.90;;;;;;5116522;28;20230;-83
2022/10/04 14:48:36;;;;;;;1.97;1.00;;;16.50;99.90;;;;;;5116670;28;20163;-84
2022/10/04 14:51:37;;;;;;;1.77;1.27;;;16.40;99.90;;;;;;5118720;28;20199;-85
2022/10/04 14:54:17;;;;;;;2.23;1.30;;;16.30;99.90;;;;;;5087797;28;20550;-85
2022/10/04 14:56:45;;;;;;;3.27;1.47;;;16.20;99.90;;;;;;5120826;28;20197;-85
2022/10/04 14:59:14;;;;;;;1.30;1.20;;;16.10;99.90;;;;;;5121014;28;20165;-84
2022/10/04 15:02:06;;;;;;;1.57;1.40;;;16.00;99.90;;;;;;5119328;28;20185;-82
2022/10/04 15:04:53;;;;;;;2.23;2.03;;;15.90;99.90;;;;;;5079085;28;20253;-85
2022/10/04 15:07:29;;;;;;;3.93;2.10;;;15.80;99.90;;;;;;5119081;28;20195;-85
2022/10/04 15:10:09;;;;;;;1.57;1.30;;;15.80;99.90;;;;;;5119741;28;20264;-86
2022/10/04 15:12:41;;;;;;;1.80;1.40;;;15.70;99.90;;;;;;5119429;28;20210;-84
2022/10/04 15:15:13;;;;;;;1.57;1.40;;;15.70;99.90;;;;;;5119385;28;20212;-84
2022/10/04 15:17:51;;;;;;;1.33;1.23;;;15.60;99.90;;;;;;5120290;28;20165;-85
2022/10/04 15:21:11;;;;;;;3.00;1.43;;;15.50;99.90;;;;;;5120663;28;20189;-84
2022/10/04 15:23:46;;;;;;;1.70;1.60;;;15.40;99.90;;;;;;5041013;28;20182;-82
2022/10/04 15:26:37;;;;;;;1.73;1.30;;;15.40;99.90;;;;;;5107980;28;20210;-85
2022/10/04 15:29:03;;;;;;;3.03;1.23;;;15.30;99.90;;;;;;5084035;28;20184;-84
2022/10/04 15:31:44;;;;;;;2.07;1.40;;;15.20;99.90;;;;;;5119223;28;20775;-84
2022/10/04 15:34:45;;;;;;;4.00;1.37;;;15.10;99.90;;;;;;5119135;28;20566;-83
2022/10/04 15:37:24;;;;;;;3.03;1.37;;;15.10;99.90;;;;;;5119390;28;20176;-85
2022/10/04 15:40:20;;;;;;;1.33;1.20;;;15.00;99.90;;;;;;5119805;28;20325;-84
2022/10/04 15:43:01;;;;;;;2.87;1.30;;;14.90;99.90;;;;;;5119753;28;20168;-85
2022/10/04 15:46:22;;;;;;;4.63;1.40;;;14.90;99.90;;;;;;5121746;28;20195;-84
2022/10/04 15:49:05;;;;;;;1.57;1.30;;;14.80;99.90;;;;;;5120088;28;20195;-84
2022/10/04 15:51:48;;;;;;;2.13;1.40;;;14.70;99.90;;;;;;5121908;28;20191;-85
2022/10/04 15:54:46;;;;;;;2.60;1.63;;;14.70;99.90;;;;;;5122340;28;20211;-85
2022/10/04 15:57:31;;;;;;;1.30;1.20;;;14.60;99.90;;;;;;5121487;28;20235;-86
2022/10/04 16:00:18;;;;;;;2.57;1.60;;;14.60;99.90;;;;;;5121871;28;20175;-83
2022/10/04 16:02:50;;;;;;;1.87;1.70;;;14.50;99.90;;;;;;5122437;28;20176;-84
2022/10/04 16:05:24;;;;;;;1.67;1.30;;;14.40;99.90;;;;;;5119192;28;20191;-84
2022/10/04 16:08:22;;;;;;;2.33;1.50;;;14.40;99.90;;;;;;5118197;28;20183;-85
2022/10/04 16:11:09;;;;;;;2.37;1.53;;;14.30;99.90;;;;;;5064360;28;20192;-84
2022/10/04 16:13:50;;;;;;;2.40;1.87;;;14.20;99.90;;;;;;5098577;28;20167;-84
2022/10/04 16:16:15;;;;;;;2.50;1.60;;;14.10;99.90;;;;;;5098521;28;20188;-85
2022/10/04 16:19:00;;;;;;;4.63;1.90;;;14.10;99.90;;;;;;5097231;28;20519;-84
2022/10/04 16:21:46;;;;;;;2.07;1.70;;;14.00;99.90;;;;;;5097241;28;20165;-85
2022/10/04 16:24:21;;;;;;;2.90;1.60;;;13.90;99.90;;;;;;5097803;28;20176;-84
2022/10/04 16:26:49;;;;;;;2.57;1.83;;;13.80;99.90;;;;;;5097625;28;20192;-84
2022/10/04 16:29:35;;;;;;;2.57;2.20;;;13.70;99.90;;;;;;5097863;28;20172;-84
2022/10/04 16:32:22;;;;;;;5.50;3.33;;;13.60;99.90;;;;;;5098883;28;20670;-86
2022/10/04 16:35:20;;;;;;;30.57;15.73;;;13.40;99.90;;;;;;5096956;28;20184;-84
2022/10/04 16:37:59;;;;;;;26.73;17.07;;;13.40;99.90;;;;;;5081324;28;20720;-84
2022/10/04 16:40:51;;;;;;;72.97;40.73;;;13.30;99.90;;;;;;5098864;28;20156;-85
2022/10/04 16:43:17;;;;;;;56.30;31.70;;;13.20;99.90;;;;;;5098210;28;20173;-86
2022/10/04 16:46:05;;;;;;;45.10;25.20;;;13.10;99.90;;;;;;5098934;28;20200;-86
2022/10/04 16:48:40;;;;;;;28.03;16.17;;;13.00;99.90;;;;;;5097986;28;20176;-84
2022/10/04 16:51:23;;;;;;;18.17;8.20;;;12.90;99.90;;;;;;5098647;28;20161;-86
2022/10/04 16:54:28;;;;;;;10.57;6.30;;;12.80;99.90;;;;;;5098007;28;20172;-84
2022/10/04 16:56:55;;;;;;;11.20;5.90;;;12.70;99.90;;;;;;5099697;28;20718;-84
2022/10/04 16:59:36;;;;;;;12.47;5.83;;;12.60;99.90;;;;;;5097319;28;20506;-83
2022/10/04 17:02:36;;;;;;;10.97;5.87;;;12.50;99.90;;;;;;5099669;28;20168;-84
2022/10/04 17:05:46;;;;;;;10.30;4.83;;;12.30;99.90;;;;;;5107473;28;20192;-84
2022/10/04 17:08:14;;;;;;;13.10;6.00;;;12.20;99.90;;;;;;5097174;28;20695;-85
2022/10/04 17:11:08;;;;;;;10.30;5.57;;;12.10;99.90;;;;;;5096635;28;20654;-84
2022/10/04 17:13:56;;;;;;;6.47;3.80;;;12.00;99.90;;;;;;5096233;28;20202;-83
2022/10/04 17:16:29;;;;;;;10.07;4.57;;;11.90;99.90;;;;;;5096465;28;20237;-83
2022/10/04 17:19:32;;;;;;;6.50;4.20;;;11.90;99.90;;;;;;5098374;28;20188;-83
2022/10/04 17:22:19;;;;;;;6.33;4.27;;;11.70;99.90;;;;;;5099686;28;20643;-83
2022/10/04 17:24:57;;;;;;;9.53;5.10;;;11.60;99.90;;;;;;5098683;28;20633;-82
2022/10/04 17:27:52;;;;;;;13.67;6.47;;;11.50;99.90;;;;;;5098570;28;20175;-84
2022/10/04 17:30:26;;;;;;;20.13;7.33;;;11.40;99.90;;;;;;5098101;28;20195;-84
2022/10/04 17:32:53;;;;;;;27.40;7.50;;;11.30;99.90;;;;;;5098271;28;20238;-85
2022/10/04 17:35:52;;;;;;;22.47;8.93;;;11.30;99.90;;;;;;5108754;28;20206;-83
2022/10/04 17:38:40;;;;;;;16.43;9.40;;;11.20;99.90;;;;;;5117480;28;20180;-84
2022/10/04 17:41:15;;;;;;;13.20;8.50;;;11.10;99.90;;;;;;5087875;28;20202;-83
2022/10/04 17:44:12;;;;;;;22.10;10.57;;;11.10;99.90;;;;;;5117421;28;20632;-81
2022/10/04 17:46:51;;;;;;;13.60;8.67;;;11.00;99.90;;;;;;5118782;28;20195;-83
2022/10/04 17:55:44;;;;;;;14.57;8.00;;;10.80;99.90;;;;;;5114016;28;20244;-84
2022/10/04 17:58:18;;;;;;;13.03;7.93;;;10.70;99.90;;;;;;5098544;28;20152;-83
2022/10/04 18:01:07;;;;;;;10.47;8.07;;;10.70;99.90;;;;;;5114328;28;20174;-85
2022/10/04 18:03:36;;;;;;;9.97;6.50;;;10.60;99.90;;;;;;5102130;28;20216;-84
2022/10/04 18:06:14;;;;;;;10.13;5.63;;;10.60;99.90;;;;;;5128787;28;20199;-83
2022/10/04 18:08:51;;;;;;;7.43;5.23;;;10.50;99.90;;;;;;5136330;28;20163;-80
2022/10/04 18:11:26;;;;;;;6.90;5.00;;;10.50;99.90;;;;;;5124328;28;20185;-83
2022/10/04 18:14:07;;;;;;;6.33;5.00;;;10.50;99.90;;;;;;5117516;28;20167;-83
2022/10/04 18:16:42;;;;;;;8.53;4.67;;;10.50;99.90;;;;;;5118573;28;20193;-83
2022/10/04 18:19:33;;;;;;;7.73;4.53;;;10.40;99.90;;;;;;5118286;28;20180;-85
2022/10/04 18:22:17;;;;;;;6.50;4.60;;;10.40;99.90;;;;;;5117777;28;20171;-85
2022/10/04 18:24:44;;;;;;;15.07;7.23;;;10.50;99.90;;;;;;5118612;28;20215;-83
2022/10/04 18:27:31;;;;;;;12.83;6.07;;;10.50;99.90;;;;;;5119482;28;20260;-83
2022/10/04 18:30:15;;;;;;;28.03;9.87;;;10.50;99.90;;;;;;5119537;28;20194;-83
2022/10/04 18:32:48;;;;;;;14.37;7.07;;;10.50;99.90;;;;;;5119130;28;20210;-84
2022/10/04 18:35:30;;;;;;;10.90;5.63;;;10.40;99.90;;;;;;5117490;28;20591;-83
2022/10/04 18:38:03;;;;;;;9.60;5.30;;;10.40;99.90;;;;;;5117481;28;20173;-84
2022/10/04 18:40:34;;;;;;;7.60;4.37;;;10.30;99.90;;;;;;5116965;28;20692;-82
2022/10/04 18:43:03;;;;;;;7.67;4.73;;;10.30;99.90;;;;;;5119904;28;20226;-83
2022/10/04 18:45:31;;;;;;;9.47;4.63;;;10.30;99.90;;;;;;5117478;28;20268;-83
2022/10/04 18:48:12;;;;;;;4.57;3.50;;;10.20;99.90;;;;;;5117456;28;20227;-84
2022/10/04 18:50:43;;;;;;;9.27;5.67;;;10.20;99.90;;;;;;5117662;28;20212;-83
2022/10/04 18:53:31;;;;;;;5.33;4.60;;;10.20;99.90;;;;;;5117145;28;20205;-84
2022/10/04 18:56:00;;;;;;;6.57;4.80;;;10.20;99.90;;;;;;5118588;28;20229;-83
2022/10/04 19:02:05;;;;;;;27.93;20.33;;;10.20;99.90;;;;;;5119326;28;20201;-83
2022/10/04 19:04:48;;;;;;;22.13;16.97;;;10.20;99.90;;;;;;5117672;28;20266;-83
2022/10/04 19:07:45;;;;;;;13.03;8.70;;;10.20;99.90;;;;;;5118808;28;20173;-83
2022/10/04 19:10:33;;;;;;;9.90;7.67;;;10.10;99.90;;;;;;5118320;28;20231;-83
2022/10/04 19:13:16;;;;;;;12.27;8.97;;;10.10;99.90;;;;;;5117529;28;20284;-82
2022/10/04 19:15:48;;;;;;;12.17;8.43;;;10.00;99.90;;;;;;5114819;28;20192;-83
2022/10/04 19:18:16;;;;;;;13.93;8.63;;;10.00;99.90;;;;;;5113992;28;20634;-83
2022/10/04 19:20:57;;;;;;;11.70;9.60;;;9.90;99.90;;;;;;5114306;28;20515;-83
2022/10/04 19:23:32;;;;;;;10.40;7.30;;;9.80;99.90;;;;;;5115352;28;20181;-83
2022/10/04 19:26:07;;;;;;;6.13;5.53;;;9.80;99.90;;;;;;5116013;28;20668;-83
2022/10/04 19:28:36;;;;;;;7.63;5.10;;;9.70;99.90;;;;;;5115961;28;20604;-84